sensor_id;sensor_type;location;lat;lon;timestamp;temperature;humidity
7240;DHT22;3661;53.288;10.458;2023-02-28T00:00:39;-1.20;99.90
7240;DHT22;3661;53.288;10.458;2023-02-28T00:03:12;-1.20;99.90
7240;DHT22;3661;53.288;10.458;2023-02-28T00:05:44;-1.30;99.90
7240;DHT22;3661;53.288;10.458;2023-02-28T00:08:17;-1.30;99.90
7240;DHT22;3661;53.288;10.458;2023-02-28T00:10:49;-1.30;99.90
7240;DHT22;3661;53.288;10.458;2023-02-28T00:13:22;-1.30;99.90
7240;DHT22;3661;53.288;10.458;2023-02-28T00:16:02;-1.40;99.90
7240;DHT22;3661;53.288;10.458;2023-02-28T00:18:35;-1.40;99.90
7240;DHT22;3661;53.288;10.458;2023-02-28T00:21:08;-1.50;99.90
7240;DHT22;3661;53.288;10.458;2023-02-28T00:23:40;-1.50;99.90
7240;DHT22;3661;53.288;10.458;2023-02-28T00:26:12;-1.50;99.90
7240;DHT22;3661;53.288;10.458;2023-02-28T00:28:46;-1.50;99.90
7240;DHT22;3661;53.288;10.458;2023-02-28T00:31:19;-1.60;99.90
7240;DHT22;3661;53.288;10.458;2023-02-28T00:33:51;-1.60;99.90
7240;DHT22;3661;53.288;10.458;2023-02-28T00:36:23;-1.60;99.90
7240;DHT22;3661;53.288;10.458;2023-02-28T00:38:55;-1.70;99.90
7240;DHT22;3661;53.288;10.458;2023-02-28T00:41:27;-1.70;99.90
7240;DHT22;3661;53.288;10.458;2023-02-28T00:44:01;-1.70;99.90
7240;DHT22;3661;53.288;10.458;2023-02-28T00:46:33;-1.80;99.90
7240;DHT22;3661;53.288;10.458;2023-02-28T00:49:05;-1.80;99.90
7240;DHT22;3661;53.288;10.458;2023-02-28T00:51:37;-1.80;99.90
7240;DHT22;3661;53.288;10.458;2023-02-28T00:54:09;-1.80;99.90
7240;DHT22;3661;53.288;10.458;2023-02-28T00:56:42;-1.90;99.90
7240;DHT22;3661;53.288;10.458;2023-02-28T00:59:18;-1.90;99.90
7240;DHT22;3661;53.288;10.458;2023-02-28T01:01:53;-1.90;99.90
7240;DHT22;3661;53.288;10.458;2023-02-28T01:04:26;-2.00;99.90
7240;DHT22;3661;53.288;10.458;2023-02-28T01:06:58;-2.00;99.90
7240;DHT22;3661;53.288;10.458;2023-02-28T01:09:31;-2.00;99.90
7240;DHT22;3661;53.288;10.458;2023-02-28T01:12:03;-2.10;99.90
7240;DHT22;3661;53.288;10.458;2023-02-28T01:14:37;-2.10;99.90
7240;DHT22;3661;53.288;10.458;2023-02-28T01:17:17;-2.10;99.90
7240;DHT22;3661;53.288;10.458;2023-02-28T01:19:49;-2.10;99.90
7240;DHT22;3661;53.288;10.458;2023-02-28T01:22:24;-2.10;99.90
7240;DHT22;3661;53.288;10.458;2023-02-28T01:24:56;-2.20;99.90
7240;DHT22;3661;53.288;10.458;2023-02-28T01:27:29;-2.20;99.90
7240;DHT22;3661;53.288;10.458;2023-02-28T01:30:03;-2.20;99.90
7240;DHT22;3661;53.288;10.458;2023-02-28T01:32:36;-2.20;99.90
7240;DHT22;3661;53.288;10.458;2023-02-28T01:35:09;-2.20;99.90
7240;DHT22;3661;53.288;10.458;2023-02-28T01:37:41;-2.20;99.90
7240;DHT22;3661;53.288;10.458;2023-02-28T01:40:14;-2.20;99.90
7240;DHT22;3661;53.288;10.458;2023-02-28T01:42:46;-2.20;99.90
7240;DHT22;3661;53.288;10.458;2023-02-28T01:45:22;-2.20;99.90
7240;DHT22;3661;53.288;10.458;2023-02-28T01:48:01;-2.20;99.90
7240;DHT22;3661;53.288;10.458;2023-02-28T01:50:37;-2.20;99.90
7240;DHT22;3661;53.288;10.458;2023-02-28T01:53:13;-2.20;99.90
7240;DHT22;3661;53.288;10.458;2023-02-28T01:55:50;-2.20;99.90
7240;DHT22;3661;53.288;10.458;2023-02-28T01:58:24;-2.30;99.90
7240;DHT22;3661;53.288;10.458;2023-02-28T02:00:58;-2.30;99.90
7240;DHT22;3661;53.288;10.458;2023-02-28T02:03:31;-2.30;99.90
7240;DHT22;3661;53.288;10.458;2023-02-28T02:06:04;-2.30;99.90
7240;DHT22;3661;53.288;10.458;2023-02-28T02:08:38;-2.30;99.90
7240;DHT22;3661;53.288;10.458;2023-02-28T02:11:12;-2.30;99.90
7240;DHT22;3661;53.288;10.458;2023-02-28T02:14:00;-2.30;99.90
7240;DHT22;3661;53.288;10.458;2023-02-28T02:16:51;-2.30;99.90
7240;DHT22;3661;53.288;10.458;2023-02-28T02:19:42;-2.30;99.90
7240;DHT22;3661;53.288;10.458;2023-02-28T02:25:28;-2.40;99.90
7240;DHT22;3661;53.288;10.458;2023-02-28T02:34:43;-2.50;99.90
7240;DHT22;3661;53.288;10.458;2023-02-28T02:37:26;-2.50;99.90
7240;DHT22;3661;53.288;10.458;2023-02-28T02:40:11;-2.50;99.90
7240;DHT22;3661;53.288;10.458;2023-02-28T02:42:49;-2.60;99.90
7240;DHT22;3661;53.288;10.458;2023-02-28T02:45:26;-2.60;99.90
7240;DHT22;3661;53.288;10.458;2023-02-28T02:48:00;-2.60;99.90
7240;DHT22;3661;53.288;10.458;2023-02-28T02:50:38;-2.70;99.90
7240;DHT22;3661;53.288;10.458;2023-02-28T02:53:13;-2.70;99.90
7240;DHT22;3661;53.288;10.458;2023-02-28T02:55:48;-2.70;99.90
7240;DHT22;3661;53.288;10.458;2023-02-28T02:58:26;-2.70;99.90
7240;DHT22;3661;53.288;10.458;2023-02-28T03:01:02;-2.80;99.90
7240;DHT22;3661;53.288;10.458;2023-02-28T03:03:35;-2.80;99.90
7240;DHT22;3661;53.288;10.458;2023-02-28T03:06:10;-2.80;99.90
7240;DHT22;3661;53.288;10.458;2023-02-28T03:08:43;-2.80;99.90
7240;DHT22;3661;53.288;10.458;2023-02-28T03:11:15;-2.90;99.90
7240;DHT22;3661;53.288;10.458;2023-02-28T03:14:10;-2.90;99.90
7240;DHT22;3661;53.288;10.458;2023-02-28T03:17:03;-2.90;99.90
7240;DHT22;3661;53.288;10.458;2023-02-28T03:19:45;-3.00;99.90
7240;DHT22;3661;53.288;10.458;2023-02-28T03:22:30;-3.00;99.90
7240;DHT22;3661;53.288;10.458;2023-02-28T03:25:08;-3.00;99.90
7240;DHT22;3661;53.288;10.458;2023-02-28T03:27:54;-3.10;99.90
7240;DHT22;3661;53.288;10.458;2023-02-28T03:30:33;-3.10;99.90
7240;DHT22;3661;53.288;10.458;2023-02-28T03:33:10;-3.10;99.90
7240;DHT22;3661;53.288;10.458;2023-02-28T03:35:48;-3.10;99.90
7240;DHT22;3661;53.288;10.458;2023-02-28T03:38:28;-3.10;99.90
7240;DHT22;3661;53.288;10.458;2023-02-28T03:41:15;-3.20;99.90
7240;DHT22;3661;53.288;10.458;2023-02-28T03:43:55;-3.20;99.90
7240;DHT22;3661;53.288;10.458;2023-02-28T03:46:32;-3.20;99.90
7240;DHT22;3661;53.288;10.458;2023-02-28T03:49:09;-3.30;99.90
7240;DHT22;3661;53.288;10.458;2023-02-28T03:51:43;-3.30;99.90
7240;DHT22;3661;53.288;10.458;2023-02-28T03:54:22;-3.30;99.90
7240;DHT22;3661;53.288;10.458;2023-02-28T03:56:59;-3.30;99.90
7240;DHT22;3661;53.288;10.458;2023-02-28T03:59:37;-3.30;99.90
7240;DHT22;3661;53.288;10.458;2023-02-28T04:02:11;-3.40;99.90
7240;DHT22;3661;53.288;10.458;2023-02-28T04:04:43;-3.40;99.90
7240;DHT22;3661;53.288;10.458;2023-02-28T04:07:18;-3.40;99.90
7240;DHT22;3661;53.288;10.458;2023-02-28T04:09:52;-3.40;99.90
7240;DHT22;3661;53.288;10.458;2023-02-28T04:12:25;-3.50;99.90
7240;DHT22;3661;53.288;10.458;2023-02-28T04:14:57;-3.50;99.90
7240;DHT22;3661;53.288;10.458;2023-02-28T04:17:29;-3.50;99.90
7240;DHT22;3661;53.288;10.458;2023-02-28T04:20:01;-3.60;99.90
7240;DHT22;3661;53.288;10.458;2023-02-28T04:22:39;-3.60;99.90
7240;DHT22;3661;53.288;10.458;2023-02-28T04:25:13;-3.60;99.90
7240;DHT22;3661;53.288;10.458;2023-02-28T04:27:45;-3.60;99.90
7240;DHT22;3661;53.288;10.458;2023-02-28T04:30:19;-3.60;99.90
7240;DHT22;3661;53.288;10.458;2023-02-28T04:32:51;-3.60;99.90
7240;DHT22;3661;53.288;10.458;2023-02-28T04:35:25;-3.70;99.90
7240;DHT22;3661;53.288;10.458;2023-02-28T04:37:57;-3.70;99.90
7240;DHT22;3661;53.288;10.458;2023-02-28T04:40:30;-3.70;99.90
7240;DHT22;3661;53.288;10.458;2023-02-28T04:43:02;-3.70;99.90
7240;DHT22;3661;53.288;10.458;2023-02-28T04:45:35;-3.80;99.90
7240;DHT22;3661;53.288;10.458;2023-02-28T04:48:08;-3.80;99.90
7240;DHT22;3661;53.288;10.458;2023-02-28T04:50:43;-3.80;99.90
7240;DHT22;3661;53.288;10.458;2023-02-28T04:53:15;-3.80;99.90
7240;DHT22;3661;53.288;10.458;2023-02-28T04:55:49;-3.90;99.90
7240;DHT22;3661;53.288;10.458;2023-02-28T04:58:22;-3.90;99.90
7240;DHT22;3661;53.288;10.458;2023-02-28T05:01:02;-3.90;99.90
7240;DHT22;3661;53.288;10.458;2023-02-28T05:03:38;-3.90;99.90
7240;DHT22;3661;53.288;10.458;2023-02-28T05:06:13;-3.90;99.90
7240;DHT22;3661;53.288;10.458;2023-02-28T05:08:47;-4.00;99.90
7240;DHT22;3661;53.288;10.458;2023-02-28T05:11:24;-4.00;99.90
7240;DHT22;3661;53.288;10.458;2023-02-28T05:13:58;-4.00;99.90
7240;DHT22;3661;53.288;10.458;2023-02-28T05:16:30;-4.10;99.90
7240;DHT22;3661;53.288;10.458;2023-02-28T05:19:02;-4.10;99.90
7240;DHT22;3661;53.288;10.458;2023-02-28T05:21:36;-4.10;99.90
7240;DHT22;3661;53.288;10.458;2023-02-28T05:24:11;-4.10;99.90
7240;DHT22;3661;53.288;10.458;2023-02-28T05:26:45;-4.10;99.90
7240;DHT22;3661;53.288;10.458;2023-02-28T05:29:18;-4.20;99.90
7240;DHT22;3661;53.288;10.458;2023-02-28T05:31:50;-4.20;99.90
7240;DHT22;3661;53.288;10.458;2023-02-28T05:34:22;-4.20;99.90
7240;DHT22;3661;53.288;10.458;2023-02-28T05:36:54;-4.20;99.90
7240;DHT22;3661;53.288;10.458;2023-02-28T05:39:27;-4.20;99.90
7240;DHT22;3661;53.288;10.458;2023-02-28T05:42:00;-4.20;99.90
7240;DHT22;3661;53.288;10.458;2023-02-28T05:44:33;-4.30;99.90
7240;DHT22;3661;53.288;10.458;2023-02-28T05:47:08;-4.30;99.90
7240;DHT22;3661;53.288;10.458;2023-02-28T05:49:41;-4.30;99.90
7240;DHT22;3661;53.288;10.458;2023-02-28T05:52:13;-4.30;99.90
7240;DHT22;3661;53.288;10.458;2023-02-28T05:54:46;-4.30;99.90
7240;DHT22;3661;53.288;10.458;2023-02-28T05:57:20;-4.30;99.90
7240;DHT22;3661;53.288;10.458;2023-02-28T05:59:52;-4.40;99.90
7240;DHT22;3661;53.288;10.458;2023-02-28T06:02:24;-4.40;99.90
7240;DHT22;3661;53.288;10.458;2023-02-28T06:04:56;-4.40;99.90
7240;DHT22;3661;53.288;10.458;2023-02-28T06:07:28;-4.40;99.90
7240;DHT22;3661;53.288;10.458;2023-02-28T06:10:00;-4.50;99.90
7240;DHT22;3661;53.288;10.458;2023-02-28T06:12:34;-4.50;99.90
7240;DHT22;3661;53.288;10.458;2023-02-28T06:15:07;-4.50;99.90
7240;DHT22;3661;53.288;10.458;2023-02-28T06:17:40;-4.50;99.90
7240;DHT22;3661;53.288;10.458;2023-02-28T06:20:12;-4.50;99.90
7240;DHT22;3661;53.288;10.458;2023-02-28T06:22:44;-4.60;99.90
7240;DHT22;3661;53.288;10.458;2023-02-28T06:25:17;-4.60;99.90
7240;DHT22;3661;53.288;10.458;2023-02-28T06:27:51;-4.60;99.90
7240;DHT22;3661;53.288;10.458;2023-02-28T06:30:23;-4.60;99.90
7240;DHT22;3661;53.288;10.458;2023-02-28T06:32:57;-4.60;99.90
7240;DHT22;3661;53.288;10.458;2023-02-28T06:35:29;-4.70;99.90
7240;DHT22;3661;53.288;10.458;2023-02-28T06:38:02;-4.60;99.90
7240;DHT22;3661;53.288;10.458;2023-02-28T06:40:34;-4.70;99.90
7240;DHT22;3661;53.288;10.458;2023-02-28T06:43:08;-4.70;99.90
7240;DHT22;3661;53.288;10.458;2023-02-28T06:45:43;-4.70;99.90
7240;DHT22;3661;53.288;10.458;2023-02-28T06:48:15;-4.70;99.90
7240;DHT22;3661;53.288;10.458;2023-02-28T06:50:48;-4.70;99.90
7240;DHT22;3661;53.288;10.458;2023-02-28T06:53:20;-4.70;99.90
7240;DHT22;3661;53.288;10.458;2023-02-28T06:55:52;-4.70;99.90
7240;DHT22;3661;53.288;10.458;2023-02-28T06:58:26;-4.70;99.90
7240;DHT22;3661;53.288;10.458;2023-02-28T07:00:58;-4.70;99.90
7240;DHT22;3661;53.288;10.458;2023-02-28T07:03:30;-4.70;99.90
7240;DHT22;3661;53.288;10.458;2023-02-28T07:06:04;-4.70;99.90
7240;DHT22;3661;53.288;10.458;2023-02-28T07:08:36;-4.70;99.90
7240;DHT22;3661;53.288;10.458;2023-02-28T07:11:08;-4.70;99.90
7240;DHT22;3661;53.288;10.458;2023-02-28T07:13:42;-4.70;99.90
7240;DHT22;3661;53.288;10.458;2023-02-28T07:16:14;-4.70;99.90
7240;DHT22;3661;53.288;10.458;2023-02-28T07:18:46;-4.70;99.90
7240;DHT22;3661;53.288;10.458;2023-02-28T07:21:18;-4.60;99.90
7240;DHT22;3661;53.288;10.458;2023-02-28T07:23:51;-4.60;99.90
7240;DHT22;3661;53.288;10.458;2023-02-28T07:26:23;-4.60;99.90
7240;DHT22;3661;53.288;10.458;2023-02-28T07:28:56;-4.50;99.90
7240;DHT22;3661;53.288;10.458;2023-02-28T07:31:28;-4.50;99.90
7240;DHT22;3661;53.288;10.458;2023-02-28T07:34:00;-4.40;99.90
7240;DHT22;3661;53.288;10.458;2023-02-28T07:36:33;-4.40;99.90
7240;DHT22;3661;53.288;10.458;2023-02-28T07:39:05;-4.30;99.90
7240;DHT22;3661;53.288;10.458;2023-02-28T07:41:37;-4.30;99.90
7240;DHT22;3661;53.288;10.458;2023-02-28T07:44:15;-4.20;99.90
7240;DHT22;3661;53.288;10.458;2023-02-28T07:46:48;-4.10;99.90
7240;DHT22;3661;53.288;10.458;2023-02-28T07:49:20;-4.00;99.90
7240;DHT22;3661;53.288;10.458;2023-02-28T07:51:52;-3.90;99.90
7240;DHT22;3661;53.288;10.458;2023-02-28T07:54:26;-3.80;99.90
7240;DHT22;3661;53.288;10.458;2023-02-28T07:56:58;-3.70;99.90
7240;DHT22;3661;53.288;10.458;2023-02-28T07:59:32;-3.60;99.90
7240;DHT22;3661;53.288;10.458;2023-02-28T08:02:04;-3.50;99.90
7240;DHT22;3661;53.288;10.458;2023-02-28T08:04:36;-3.40;99.90
7240;DHT22;3661;53.288;10.458;2023-02-28T08:07:08;-3.20;99.90
7240;DHT22;3661;53.288;10.458;2023-02-28T08:09:44;-3.10;99.90
7240;DHT22;3661;53.288;10.458;2023-02-28T08:12:16;-3.00;99.90
7240;DHT22;3661;53.288;10.458;2023-02-28T08:14:49;-2.80;99.90
7240;DHT22;3661;53.288;10.458;2023-02-28T08:17:21;-2.70;99.90
7240;DHT22;3661;53.288;10.458;2023-02-28T08:19:53;-2.50;99.90
7240;DHT22;3661;53.288;10.458;2023-02-28T08:22:25;-2.30;99.90
7240;DHT22;3661;53.288;10.458;2023-02-28T08:24:57;-2.20;99.90
7240;DHT22;3661;53.288;10.458;2023-02-28T08:27:29;-2.00;99.90
7240;DHT22;3661;53.288;10.458;2023-02-28T08:30:04;-1.80;99.90
7240;DHT22;3661;53.288;10.458;2023-02-28T08:32:36;-1.60;99.90
7240;DHT22;3661;53.288;10.458;2023-02-28T08:35:09;-1.40;99.90
7240;DHT22;3661;53.288;10.458;2023-02-28T08:37:41;-1.30;99.90
7240;DHT22;3661;53.288;10.458;2023-02-28T08:40:13;-1.10;99.90
7240;DHT22;3661;53.288;10.458;2023-02-28T08:42:48;-0.90;99.90
7240;DHT22;3661;53.288;10.458;2023-02-28T08:45:22;-0.70;99.90
7240;DHT22;3661;53.288;10.458;2023-02-28T08:47:54;-0.50;99.90
7240;DHT22;3661;53.288;10.458;2023-02-28T08:50:27;-0.30;99.90
7240;DHT22;3661;53.288;10.458;2023-02-28T08:52:59;-0.10;99.90
7240;DHT22;3661;53.288;10.458;2023-02-28T08:55:31;0.10;99.90
7240;DHT22;3661;53.288;10.458;2023-02-28T08:58:03;0.30;99.90
7240;DHT22;3661;53.288;10.458;2023-02-28T09:00:36;0.50;99.90
7240;DHT22;3661;53.288;10.458;2023-02-28T09:03:09;0.70;99.90
7240;DHT22;3661;53.288;10.458;2023-02-28T09:05:41;1.00;99.90
7240;DHT22;3661;53.288;10.458;2023-02-28T09:08:13;1.20;99.90
7240;DHT22;3661;53.288;10.458;2023-02-28T09:10:45;1.40;99.90
7240;DHT22;3661;53.288;10.458;2023-02-28T09:13:18;1.60;99.90
7240;DHT22;3661;53.288;10.458;2023-02-28T09:15:51;1.90;99.90
7240;DHT22;3661;53.288;10.458;2023-02-28T09:18:23;2.10;99.90
7240;DHT22;3661;53.288;10.458;2023-02-28T09:20:55;2.30;99.90
7240;DHT22;3661;53.288;10.458;2023-02-28T09:23:28;2.50;99.90
7240;DHT22;3661;53.288;10.458;2023-02-28T09:26:00;2.70;99.90
7240;DHT22;3661;53.288;10.458;2023-02-28T09:28:32;3.00;99.90
7240;DHT22;3661;53.288;10.458;2023-02-28T09:31:06;3.20;99.90
7240;DHT22;3661;53.288;10.458;2023-02-28T09:33:38;3.40;99.90
7240;DHT22;3661;53.288;10.458;2023-02-28T09:36:10;3.60;99.90
7240;DHT22;3661;53.288;10.458;2023-02-28T09:38:42;3.90;99.90
7240;DHT22;3661;53.288;10.458;2023-02-28T09:41:16;4.10;99.90
7240;DHT22;3661;53.288;10.458;2023-02-28T09:43:51;4.30;99.90
7240;DHT22;3661;53.288;10.458;2023-02-28T09:46:32;4.60;99.90
7240;DHT22;3661;53.288;10.458;2023-02-28T09:49:07;4.80;99.90
7240;DHT22;3661;53.288;10.458;2023-02-28T09:51:50;5.00;99.90
7240;DHT22;3661;53.288;10.458;2023-02-28T09:54:24;5.30;99.90
7240;DHT22;3661;53.288;10.458;2023-02-28T09:57:01;5.50;99.90
7240;DHT22;3661;53.288;10.458;2023-02-28T09:59:47;5.70;99.90
7240;DHT22;3661;53.288;10.458;2023-02-28T10:05:41;6.20;99.90
7240;DHT22;3661;53.288;10.458;2023-02-28T10:08:18;6.50;99.90
7240;DHT22;3661;53.288;10.458;2023-02-28T10:10:54;6.70;99.90
7240;DHT22;3661;53.288;10.458;2023-02-28T10:13:33;6.90;99.90
7240;DHT22;3661;53.288;10.458;2023-02-28T10:16:11;7.10;99.90
7240;DHT22;3661;53.288;10.458;2023-02-28T10:18:47;7.30;99.90
7240;DHT22;3661;53.288;10.458;2023-02-28T10:21:25;7.50;99.90
7240;DHT22;3661;53.288;10.458;2023-02-28T10:24:03;7.70;99.90
7240;DHT22;3661;53.288;10.458;2023-02-28T10:26:36;7.90;99.90
7240;DHT22;3661;53.288;10.458;2023-02-28T10:29:09;8.10;99.90
7240;DHT22;3661;53.288;10.458;2023-02-28T10:31:42;8.30;99.90
7240;DHT22;3661;53.288;10.458;2023-02-28T10:34:14;8.50;99.90
7240;DHT22;3661;53.288;10.458;2023-02-28T10:36:49;8.70;99.90
7240;DHT22;3661;53.288;10.458;2023-02-28T10:39:39;8.90;99.90
7240;DHT22;3661;53.288;10.458;2023-02-28T10:42:22;9.10;99.90
7240;DHT22;3661;53.288;10.458;2023-02-28T10:45:11;9.30;99.90
7240;DHT22;3661;53.288;10.458;2023-02-28T10:47:51;9.50;99.90
7240;DHT22;3661;53.288;10.458;2023-02-28T10:50:31;9.70;99.90
7240;DHT22;3661;53.288;10.458;2023-02-28T10:53:34;9.90;99.90
7240;DHT22;3661;53.288;10.458;2023-02-28T10:56:16;10.10;99.90
7240;DHT22;3661;53.288;10.458;2023-02-28T10:58:52;10.30;99.90
7240;DHT22;3661;53.288;10.458;2023-02-28T11:01:35;10.50;99.90
7240;DHT22;3661;53.288;10.458;2023-02-28T11:04:18;10.70;99.90
7240;DHT22;3661;53.288;10.458;2023-02-28T11:06:57;10.90;99.90
7240;DHT22;3661;53.288;10.458;2023-02-28T11:09:34;11.10;99.90
7240;DHT22;3661;53.288;10.458;2023-02-28T11:12:17;11.30;99.90
7240;DHT22;3661;53.288;10.458;2023-02-28T11:14:53;11.50;99.90
7240;DHT22;3661;53.288;10.458;2023-02-28T11:17:28;11.60;99.90
7240;DHT22;3661;53.288;10.458;2023-02-28T11:20:04;11.80;99.90
7240;DHT22;3661;53.288;10.458;2023-02-28T11:22:43;11.90;99.90
7240;DHT22;3661;53.288;10.458;2023-02-28T11:25:21;12.00;99.90
7240;DHT22;3661;53.288;10.458;2023-02-28T11:27:56;12.10;99.90
7240;DHT22;3661;53.288;10.458;2023-02-28T11:30:35;12.20;99.90
7240;DHT22;3661;53.288;10.458;2023-02-28T11:33:25;12.40;99.90
7240;DHT22;3661;53.288;10.458;2023-02-28T11:36:01;12.40;99.90
7240;DHT22;3661;53.288;10.458;2023-02-28T11:38:34;12.50;99.90
7240;DHT22;3661;53.288;10.458;2023-02-28T11:41:27;12.60;99.90
7240;DHT22;3661;53.288;10.458;2023-02-28T11:44:22;12.70;99.90
7240;DHT22;3661;53.288;10.458;2023-02-28T11:46:58;12.80;99.90
7240;DHT22;3661;53.288;10.458;2023-02-28T11:49:40;12.90;99.90
7240;DHT22;3661;53.288;10.458;2023-02-28T11:52:21;13.00;99.90
7240;DHT22;3661;53.288;10.458;2023-02-28T11:55:12;13.00;99.90
7240;DHT22;3661;53.288;10.458;2023-02-28T11:58:01;13.10;99.90
7240;DHT22;3661;53.288;10.458;2023-02-28T12:00:44;13.10;99.90
7240;DHT22;3661;53.288;10.458;2023-02-28T12:03:28;13.20;99.90
7240;DHT22;3661;53.288;10.458;2023-02-28T12:06:11;13.20;99.90
7240;DHT22;3661;53.288;10.458;2023-02-28T12:08:53;13.30;99.90
7240;DHT22;3661;53.288;10.458;2023-02-28T12:11:35;13.30;99.90
7240;DHT22;3661;53.288;10.458;2023-02-28T12:14:29;13.30;99.90
7240;DHT22;3661;53.288;10.458;2023-02-28T12:17:15;13.40;99.90
7240;DHT22;3661;53.288;10.458;2023-02-28T12:19:56;13.40;99.90
7240;DHT22;3661;53.288;10.458;2023-02-28T12:22:33;13.40;99.90
7240;DHT22;3661;53.288;10.458;2023-02-28T12:25:44;13.50;99.90
7240;DHT22;3661;53.288;10.458;2023-02-28T12:28:23;13.50;99.90
7240;DHT22;3661;53.288;10.458;2023-02-28T12:31:00;13.50;99.90
7240;DHT22;3661;53.288;10.458;2023-02-28T12:33:36;13.50;99.90
7240;DHT22;3661;53.288;10.458;2023-02-28T12:36:13;13.40;99.90
7240;DHT22;3661;53.288;10.458;2023-02-28T12:38:53;13.50;99.90
7240;DHT22;3661;53.288;10.458;2023-02-28T12:41:31;13.50;99.90
7240;DHT22;3661;53.288;10.458;2023-02-28T12:44:09;13.40;99.90
7240;DHT22;3661;53.288;10.458;2023-02-28T12:46:49;13.50;99.90
7240;DHT22;3661;53.288;10.458;2023-02-28T12:49:25;13.50;99.90
7240;DHT22;3661;53.288;10.458;2023-02-28T12:55:33;13.50;99.90
7240;DHT22;3661;53.288;10.458;2023-02-28T13:15:24;13.60;99.90
7240;DHT22;3661;53.288;10.458;2023-02-28T13:21:44;13.60;99.90
7240;DHT22;3661;53.288;10.458;2023-02-28T13:24:37;13.70;99.90
7240;DHT22;3661;53.288;10.458;2023-02-28T13:50:59;13.50;99.90
7240;DHT22;3661;53.288;10.458;2023-02-28T13:57:07;13.40;99.90
7240;DHT22;3661;53.288;10.458;2023-02-28T13:59:50;13.40;99.90
7240;DHT22;3661;53.288;10.458;2023-02-28T14:02:45;13.30;99.90
7240;DHT22;3661;53.288;10.458;2023-02-28T14:05:19;13.30;99.90
7240;DHT22;3661;53.288;10.458;2023-02-28T14:07:59;13.30;99.90
7240;DHT22;3661;53.288;10.458;2023-02-28T14:10:34;13.30;99.90
7240;DHT22;3661;53.288;10.458;2023-02-28T14:13:14;13.30;99.90
7240;DHT22;3661;53.288;10.458;2023-02-28T14:16:09;13.30;99.90
7240;DHT22;3661;53.288;10.458;2023-02-28T14:18:49;13.30;99.90
7240;DHT22;3661;53.288;10.458;2023-02-28T14:21:23;13.30;99.90
7240;DHT22;3661;53.288;10.458;2023-02-28T14:24:08;13.30;99.90
7240;DHT22;3661;53.288;10.458;2023-02-28T14:26:58;13.30;99.90
7240;DHT22;3661;53.288;10.458;2023-02-28T14:29:59;13.30;99.90
7240;DHT22;3661;53.288;10.458;2023-02-28T14:32:44;13.30;99.90
7240;DHT22;3661;53.288;10.458;2023-02-28T14:35:40;13.30;99.90
7240;DHT22;3661;53.288;10.458;2023-02-28T14:38:19;13.30;99.90
7240;DHT22;3661;53.288;10.458;2023-02-28T14:40:55;13.30;99.90
7240;DHT22;3661;53.288;10.458;2023-02-28T14:43:28;13.30;99.90
7240;DHT22;3661;53.288;10.458;2023-02-28T14:46:02;13.30;99.90
7240;DHT22;3661;53.288;10.458;2023-02-28T14:48:37;13.30;99.90
7240;DHT22;3661;53.288;10.458;2023-02-28T14:51:10;13.30;99.90
7240;DHT22;3661;53.288;10.458;2023-02-28T14:53:42;13.30;99.90
7240;DHT22;3661;53.288;10.458;2023-02-28T14:56:21;13.20;99.90
7240;DHT22;3661;53.288;10.458;2023-02-28T14:58:55;13.20;99.90
7240;DHT22;3661;53.288;10.458;2023-02-28T15:01:27;13.20;99.90
7240;DHT22;3661;53.288;10.458;2023-02-28T15:04:03;13.10;99.90
7240;DHT22;3661;53.288;10.458;2023-02-28T15:06:36;13.10;99.90
7240;DHT22;3661;53.288;10.458;2023-02-28T15:09:10;13.00;99.90
7240;DHT22;3661;53.288;10.458;2023-02-28T15:11:46;12.90;99.90
7240;DHT22;3661;53.288;10.458;2023-02-28T15:14:20;12.90;99.90
7240;DHT22;3661;53.288;10.458;2023-02-28T15:16:56;12.80;99.90
7240;DHT22;3661;53.288;10.458;2023-02-28T15:19:31;12.80;99.90
7240;DHT22;3661;53.288;10.458;2023-02-28T15:22:07;12.80;99.90
7240;DHT22;3661;53.288;10.458;2023-02-28T15:24:42;12.70;99.90
7240;DHT22;3661;53.288;10.458;2023-02-28T15:27:19;12.70;99.90
7240;DHT22;3661;53.288;10.458;2023-02-28T15:29:56;12.70;99.90
7240;DHT22;3661;53.288;10.458;2023-02-28T15:32:30;12.70;99.90
7240;DHT22;3661;53.288;10.458;2023-02-28T15:35:25;12.60;99.90
7240;DHT22;3661;53.288;10.458;2023-02-28T15:38:01;12.60;99.90
7240;DHT22;3661;53.288;10.458;2023-02-28T15:40:38;12.60;99.90
7240;DHT22;3661;53.288;10.458;2023-02-28T15:43:14;12.60;99.90
7240;DHT22;3661;53.288;10.458;2023-02-28T15:45:49;12.60;99.90
7240;DHT22;3661;53.288;10.458;2023-02-28T15:48:23;12.50;99.90
7240;DHT22;3661;53.288;10.458;2023-02-28T15:51:02;12.50;99.90
7240;DHT22;3661;53.288;10.458;2023-02-28T15:53:37;12.50;99.90
7240;DHT22;3661;53.288;10.458;2023-02-28T15:56:20;12.40;99.90
7240;DHT22;3661;53.288;10.458;2023-02-28T15:58:54;12.30;99.90
7240;DHT22;3661;53.288;10.458;2023-02-28T16:01:28;12.20;99.90
7240;DHT22;3661;53.288;10.458;2023-02-28T16:04:04;12.10;99.90
7240;DHT22;3661;53.288;10.458;2023-02-28T16:06:40;12.00;99.90
7240;DHT22;3661;53.288;10.458;2023-02-28T16:09:14;11.90;99.90
7240;DHT22;3661;53.288;10.458;2023-02-28T16:11:48;11.70;99.90
7240;DHT22;3661;53.288;10.458;2023-02-28T16:14:22;11.60;99.90
7240;DHT22;3661;53.288;10.458;2023-02-28T16:16:57;11.50;99.90
7240;DHT22;3661;53.288;10.458;2023-02-28T16:19:33;11.30;99.90
7240;DHT22;3661;53.288;10.458;2023-02-28T16:22:09;11.20;99.90
7240;DHT22;3661;53.288;10.458;2023-02-28T16:24:42;11.00;99.90
7240;DHT22;3661;53.288;10.458;2023-02-28T16:27:18;10.80;99.90
7240;DHT22;3661;53.288;10.458;2023-02-28T16:29:51;10.70;99.90
7240;DHT22;3661;53.288;10.458;2023-02-28T16:32:24;10.50;99.90
7240;DHT22;3661;53.288;10.458;2023-02-28T16:34:56;10.40;99.90
7240;DHT22;3661;53.288;10.458;2023-02-28T16:37:30;10.20;99.90
7240;DHT22;3661;53.288;10.458;2023-02-28T16:40:02;10.10;99.90
7240;DHT22;3661;53.288;10.458;2023-02-28T16:42:34;9.90;99.90
7240;DHT22;3661;53.288;10.458;2023-02-28T16:45:15;9.70;99.90
7240;DHT22;3661;53.288;10.458;2023-02-28T16:47:50;9.60;99.90
7240;DHT22;3661;53.288;10.458;2023-02-28T16:50:23;9.40;99.90
7240;DHT22;3661;53.288;10.458;2023-02-28T16:52:57;9.30;99.90
7240;DHT22;3661;53.288;10.458;2023-02-28T16:55:32;9.10;99.90
7240;DHT22;3661;53.288;10.458;2023-02-28T16:58:06;8.90;99.90
7240;DHT22;3661;53.288;10.458;2023-02-28T17:00:38;8.80;99.90
7240;DHT22;3661;53.288;10.458;2023-02-28T17:03:21;8.60;99.90
7240;DHT22;3661;53.288;10.458;2023-02-28T17:05:54;8.50;99.90
7240;DHT22;3661;53.288;10.458;2023-02-28T17:08:27;8.30;99.90
7240;DHT22;3661;53.288;10.458;2023-02-28T17:11:00;8.20;99.90
7240;DHT22;3661;53.288;10.458;2023-02-28T17:13:33;8.00;99.90
7240;DHT22;3661;53.288;10.458;2023-02-28T17:16:07;7.90;99.90
7240;DHT22;3661;53.288;10.458;2023-02-28T17:18:40;7.70;99.90
7240;DHT22;3661;53.288;10.458;2023-02-28T17:21:14;7.60;99.90
7240;DHT22;3661;53.288;10.458;2023-02-28T17:23:48;7.40;99.90
7240;DHT22;3661;53.288;10.458;2023-02-28T17:26:21;7.30;99.90
7240;DHT22;3661;53.288;10.458;2023-02-28T17:28:57;7.20;99.90
7240;DHT22;3661;53.288;10.458;2023-02-28T17:31:29;7.00;99.90
7240;DHT22;3661;53.288;10.458;2023-02-28T17:34:03;6.90;99.90
7240;DHT22;3661;53.288;10.458;2023-02-28T17:36:35;6.80;99.90
7240;DHT22;3661;53.288;10.458;2023-02-28T17:39:11;6.60;99.90
7240;DHT22;3661;53.288;10.458;2023-02-28T17:41:44;6.50;99.90
7240;DHT22;3661;53.288;10.458;2023-02-28T17:44:16;6.40;99.90
7240;DHT22;3661;53.288;10.458;2023-02-28T17:46:48;6.30;99.90
7240;DHT22;3661;53.288;10.458;2023-02-28T17:49:21;6.20;99.90